Latest Weather Observations for Townsville Air Weapons Range (Defence)

IDQ60801

Issued at 8:22 pm EST Tuesday 23 October 2018 (issued every 10 minutes, with the page automatically refreshed every 10 minutes)

About weather observations | Map of weather stations | Latest weather observations for QLD | Other Formats
Station Details ID: 032196 Name: TOWNSVILLE- AIR WEAPONS RANGE (DEFENCE) Lat: -19.30 Lon: 146.24 Height: 385.45 m
Data from the previous 72 hours. | See also: Recent months at Townsville Air Weapons Range (Defence)
Date/Time
EST
Temp
°C
App
Temp
°C
Dew
Point
°C
Rel
Hum
%
Delta-T
°C
Wind Press
QNH
hPa
Press
MSL
hPa
Rain since
9am
mm
Dir  Spd
km/h
Gust
km/h
Spd
kts
Gust
kts
23/08:00pm 23.2 23.3 19.2 78 2.6 ENE 17 30 9 16 - - 0.0
23/07:30pm 23.2 22.9 19.2 78 2.6 ENE 19 28 10 15 - - 0.0
23/07:00pm 23.4 23.2 19.3 78 2.7 ENE 19 32 10 17 - - 0.0
23/06:30pm 23.7 24.3 19.4 77 2.8 ENE 15 24 8 13 - - 0.0
23/06:00pm 24.5 23.9 18.9 71 3.6 ENE 20 35 11 19 - - 0.0
23/05:30pm 25.7 24.7 18.9 66 4.4 ENE 22 32 12 17 - - 0.0
23/05:00pm 27.2 26.8 19.0 61 5.4 ENE 19 30 10 16 - - 0.0
23/04:30pm 28.7 29.9 18.2 53 6.8 NNW 9 13 5 7 - - 0.0
23/04:00pm 28.4 28.6 18.5 55 6.4 NE 15 22 8 12 - - 0.0
23/03:30pm 29.8 29.1 18.3 50 7.5 ENE 19 30 10 16 - - 0.0
23/03:00pm 30.7 29.8 18.1 47 8.2 ENE 20 30 11 16 - - 0.0
23/02:30pm 31.5 30.0 18.5 46 8.5 E 24 35 13 19 - - 0.0
23/02:00pm 31.7 30.3 18.7 46 8.6 E 24 35 13 19 - - 0.0
23/01:30pm 32.6 31.6 18.8 44 9.1 E 22 33 12 18 - - 0.0
23/01:00pm 32.2 31.6 18.8 45 8.8 E 20 32 11 17 - - 0.0
23/12:30pm 32.4 31.9 15.0 35 10.9 ENE 11 19 6 10 - - 0.0
23/12:00pm 31.7 31.3 15.2 36 10.3 N 11 20 6 11 - - 0.0
23/11:30am 31.4 31.2 16.6 41 9.5 NE 13 20 7 11 - - 0.0
23/11:00am 30.5 29.8 16.5 43 8.9 NE 15 28 8 15 - - 0.0
23/10:30am 29.9 28.8 17.4 47 8.0 NNE 19 28 10 15 - - 0.0
23/10:00am 28.7 28.2 16.9 48 7.5 NNE 15 24 8 13 - - 0.0
23/09:30am 29.1 28.9 17.6 50 7.4 NNE 15 24 8 13 - - 0.0
23/09:00am 28.1 28.3 18.5 56 6.2 NE 15 28 8 15 - - 0.0
23/08:30am 27.2 27.9 17.9 56 6.0 NNE 11 17 6 9 - - 0.0
23/08:00am 26.2 26.1 17.8 60 5.4 ENE 15 22 8 12 - - 0.0
23/07:30am 25.6 26.3 18.0 63 4.9 ENE 11 15 6 8 - - 0.0
23/07:00am 24.7 26.0 18.4 68 4.0 ENE 9 15 5 8 - - 0.0
23/06:30am 22.6 24.5 19.0 80 2.3 NE 7 11 4 6 - - 0.0
23/06:00am 21.1 22.7 17.9 82 2.0 NNE 6 7 3 4 - - 0.0
23/05:30am 21.8 23.5 18.4 81 2.2 ENE 7 9 4 5 - - 0.0
23/05:00am 21.5 22.6 18.1 81 2.1 ENE 9 13 5 7 - - 0.0
23/04:30am 21.5 22.3 18.1 81 2.1 ENE 11 15 6 8 - - 0.0
23/04:00am 21.4 22.1 18.0 81 2.1 ENE 11 17 6 9 - - 0.0
23/03:30am 21.7 22.0 17.9 79 2.4 ENE 13 20 7 11 - - 0.0
23/03:00am 21.6 21.9 17.8 79 2.4 ENE 13 20 7 11 - - 0.0
23/02:30am 21.9 21.8 17.9 78 2.5 ENE 15 20 8 11 - - 0.0
23/02:00am 22.0 21.7 18.2 79 2.4 ENE 17 24 9 13 - - 0.0
23/01:30am 22.2 22.0 18.4 79 2.4 ENE 17 22 9 12 - - 0.0
23/01:00am 22.3 21.9 18.1 77 2.7 ENE 17 26 9 14 - - 0.0
23/12:30am 22.3 21.9 18.1 77 2.7 ENE 17 26 9 14 - - 0.0
23/12:00am 22.5 22.1 18.1 76 2.8 ENE 17 26 9 14 - - 0.0
 
Date/Time
EST
Temp
°C
App
Temp
°C
Dew
Point
°C
Rel
Hum
%
Delta-T
°C
Wind Press
QNH
hPa
Press
MSL
hPa
Rain since
9am
mm
Dir  Spd
km/h
Gust
km/h
Spd
kts
Gust
kts
22/11:30pm 22.6 22.4 18.6 78 2.6 ENE 17 28 9 15 - - 0.0
22/11:00pm 22.8 21.9 18.3 76 2.9 ENE 20 28 11 15 - - 0.0
22/10:30pm 22.7 22.1 18.5 77 2.7 ENE 19 26 10 14 - - 0.0
22/10:00pm 22.9 22.4 18.7 77 2.7 ENE 19 26 10 14 - - 0.0
22/09:30pm 22.9 22.9 18.9 78 2.6 ENE 17 26 9 14 - - 0.0
22/09:00pm 23.0 22.7 19.2 79 2.5 ENE 19 28 10 15 - - 0.0
22/08:30pm 23.1 22.9 19.3 79 2.5 ENE 19 30 10 16 - - 0.0
22/08:00pm 23.2 22.7 19.2 78 2.6 ENE 20 30 11 16 - - 0.0
22/07:30pm 23.4 23.5 19.1 77 2.8 ENE 17 26 9 14 - - 0.0
22/07:00pm 23.5 24.4 19.2 77 2.8 ENE 13 19 7 10 - - 0.0
22/06:30pm 23.9 23.4 19.2 75 3.0 ENE 20 33 11 18 - - 0.0
22/06:00pm 24.5 24.3 19.3 73 3.4 ENE 19 30 10 16 - - 0.0
22/05:30pm 25.2 24.8 18.9 68 4.1 ENE 19 32 10 17 - - 0.0
22/05:00pm 25.8 24.2 19.2 67 4.3 ENE 26 39 14 21 - - 0.0
22/04:30pm 26.9 25.2 19.0 62 5.2 E 26 35 14 19 - - 0.0
22/04:00pm 28.9 26.8 18.9 54 6.6 ENE 28 43 15 23 - - 0.0
22/03:30pm 31.0 29.0 18.4 47 8.2 ENE 26 35 14 19 - - 0.0
22/03:00pm 31.6 29.4 18.6 46 8.5 E 28 41 15 22 - - 0.0
22/02:30pm 32.8 31.1 18.2 42 9.6 E 24 35 13 19 - - 0.0
22/02:00pm 32.8 31.3 17.8 40 9.8 E 22 35 12 19 - - 0.0
22/01:30pm 33.1 32.0 17.3 39 10.2 E 19 28 10 15 - - 0.0
22/01:00pm 33.8 33.0 17.9 38 10.4 E 19 28 10 15 - - 0.0
22/12:30pm 33.8 34.3 16.6 35 11.1 NE 9 22 5 12 - - 0.0
22/12:00pm 33.6 33.8 14.6 31 11.9 NE 7 22 4 12 - - 0.0
22/11:30am 32.3 31.9 13.0 31 11.7 NNE 7 13 4 7 - - 0.0
22/11:00am 31.1 30.1 13.4 34 10.8 NNE 11 22 6 12 - - 0.0
22/10:30am 29.7 28.7 14.7 40 9.3 NNE 13 20 7 11 - - 0.0
22/10:00am 29.0 28.7 15.5 44 8.4 N 11 20 6 11 - - 0.0
22/09:30am 27.9 28.9 16.8 50 7.0 NNW 7 11 4 6 - - 0.0
22/09:00am 26.4 27.2 16.3 53 6.3 ENE 7 13 4 7 - - 0.0
22/08:30am 26.8 28.1 17.6 57 5.9 ENE 7 13 4 7 - - 0.0
22/08:00am 24.6 25.9 17.6 65 4.4 NE 7 11 4 6 - - 0.0
22/07:30am 24.3 25.9 18.2 68 3.9 ENE 7 11 4 6 - - 0.0
22/07:00am 22.4 25.3 18.2 77 2.7 CALM 0 4 0 2 - - 0.0
22/06:30am 20.7 23.6 18.3 86 1.5 CALM 0 0 0 0 - - 0.0
22/06:00am 19.8 21.6 17.4 86 1.5 NE 4 4 2 2 - - 0.0
22/05:30am 19.9 21.7 17.5 86 1.5 NNE 4 4 2 2 - - 0.0
22/05:00am 19.8 21.1 17.2 85 1.6 NE 6 6 3 3 - - 0.0
22/04:30am 19.7 20.9 17.3 86 1.5 ENE 7 7 4 4 - - 0.0
22/04:00am 20.1 21.3 17.3 84 1.7 ENE 7 9 4 5 - - 0.0
22/03:30am 20.3 21.6 17.5 84 1.7 NE 7 9 4 5 - - 0.0
22/03:00am 20.2 21.6 17.4 84 1.7 NNE 6 7 3 4 - - 0.0
22/02:30am 20.5 21.9 17.7 84 1.8 ENE 7 11 4 6 - - 0.0
22/02:00am 20.6 21.9 17.6 83 1.9 NE 7 9 4 5 - - 0.0
22/01:30am 20.8 22.3 17.6 82 2.0 NE 6 9 3 5 - - 0.0
22/01:00am 21.3 22.4 17.9 81 2.1 NE 9 13 5 7 - - 0.0
22/12:30am 21.7 22.5 18.1 80 2.3 ENE 11 17 6 9 - - 0.0
22/12:00am 21.9 22.4 18.3 80 2.3 ENE 13 22 7 12 - - 0.0
 
Date/Time
EST
Temp
°C
App
Temp
°C
Dew
Point
°C
Rel
Hum
%
Delta-T
°C
Wind Press
QNH
hPa
Press
MSL
hPa
Rain since
9am
mm
Dir  Spd
km/h
Gust
km/h
Spd
kts
Gust
kts
21/11:30pm 22.1 22.3 18.5 80 2.3 ENE 15 24 8 13 - - 0.0
21/11:00pm 22.2 22.0 18.6 80 2.3 ENE 17 26 9 14 - - 0.0
21/10:30pm 22.3 21.9 18.9 81 2.2 ENE 19 26 10 14 - - 0.0
21/10:00pm 22.3 21.6 18.7 80 2.3 ENE 20 30 11 16 - - 0.0
21/09:30pm 22.3 21.2 18.7 80 2.3 ENE 22 33 12 18 - - 0.0
21/09:00pm 22.3 21.9 18.9 81 2.2 ENE 19 24 10 13 - - 0.0
21/08:30pm 22.4 21.9 18.6 79 2.4 ENE 19 26 10 14 - - 0.0
21/08:00pm 22.6 22.3 19.2 81 2.2 ENE 19 30 10 16 - - 0.0
21/07:30pm 22.9 22.3 18.9 78 2.6 ENE 20 30 11 16 - - 0.0
21/07:00pm 23.4 22.9 18.7 75 3.0 ENE 19 28 10 15 - - 0.0
21/06:30pm 24.4 23.7 18.6 70 3.7 E 20 32 11 17 - - 0.0
21/06:00pm 25.8 25.0 18.5 64 4.7 E 20 28 11 15 - - 0.0
21/05:30pm 27.6 26.2 18.0 55 6.2 ENE 22 32 12 17 - - 0.0
21/05:00pm 29.5 28.7 18.0 50 7.5 E 19 30 10 16 - - 0.0
21/04:30pm 30.2 28.2 17.3 46 8.3 E 24 33 13 18 - - 0.0
21/04:00pm 31.4 30.0 16.9 41 9.3 ENE 20 30 11 16 - - 0.0
21/03:30pm 31.8 30.2 16.5 39 9.8 ENE 20 28 11 15 - - 0.0
21/03:00pm 32.9 31.7 17.1 39 10.2 ENE 19 28 10 15 - - 0.0
21/02:30pm 33.3 32.1 17.1 38 10.5 E 19 30 10 16 - - 0.0
21/02:00pm 33.4 32.2 17.1 37 10.6 E 19 28 10 15 - - 0.0
21/01:30pm 34.0 34.0 18.1 39 10.5 E 15 28 8 15 - - 0.0
21/01:00pm 33.6 33.6 18.1 39 10.2 ESE 15 24 8 13 - - 0.0
21/12:30pm 32.6 33.3 18.0 41 9.5 E 11 20 6 11 - - 0.0
21/12:00pm 32.0 32.6 15.9 38 10.2 NNE 7 17 4 9 - - 0.0
21/11:30am 30.4 30.6 15.7 41 9.2 NNW 9 15 5 8 - - 0.0
21/11:00am 31.1 31.5 16.3 41 9.4 N 9 17 5 9 - - 0.0
21/10:30am 29.7 30.6 16.5 45 8.4 N 7 19 4 10 - - 0.0
21/10:00am 28.5 29.4 16.1 47 7.8 NNE 6 13 3 7 - - 0.0
21/09:30am 28.3 29.5 16.9 50 7.2 NNE 6 15 3 8 - - 0.0
21/09:00am 26.4 26.8 16.3 53 6.3 N 9 17 5 9 - - 0.0
21/08:30am 25.3 26.6 17.0 60 5.2 NE 6 11 3 6 - - 0.0
21/08:00am 24.5 26.0 17.7 66 4.3 ENE 6 9 3 5 - - 0.0
21/07:30am 23.6 25.6 17.8 70 3.7 ENE 4 7 2 4 - - 0.0
21/07:00am 22.5 24.3 18.3 77 2.7 ENE 6 7 3 4 - - 0.0
21/06:30am 20.9 22.9 17.9 83 1.9 ENE 4 6 2 3 - - 0.0
21/06:00am 19.8 21.2 17.4 86 1.5 ENE 6 7 3 4 - - 0.0
21/05:30am 19.9 21.2 17.1 84 1.7 NE 6 7 3 4 - - 0.0
21/05:00am 20.2 21.3 17.2 83 1.9 NE 7 9 4 5 - - 0.0
21/04:30am 20.2 21.0 17.4 84 1.7 NNE 9 11 5 6 - - 0.0
21/04:00am 20.1 21.0 17.5 85 1.6 NNE 9 9 5 5 - - 0.0
21/03:30am 20.5 22.0 17.7 84 1.8 NE 6 9 3 5 - - 0.0
21/03:00am 20.9 21.1 17.7 82 2.0 ENE 13 19 7 10 - - 0.0
21/02:30am 21.1 21.4 17.9 82 2.0 ENE 13 20 7 11 - - 0.0
21/02:00am 21.1 20.9 17.7 81 2.1 ENE 15 22 8 12 - - 0.0
21/01:30am 21.3 21.7 18.1 82 2.0 ENE 13 20 7 11 - - 0.0
21/01:00am 21.4 21.4 18.0 81 2.1 ENE 15 22 8 12 - - 0.0
21/12:30am 21.5 21.1 18.1 81 2.1 ENE 17 22 9 12 - - 0.0
21/12:00am 21.6 21.3 18.2 81 2.2 NE 17 28 9 15 - - 0.0
 
Date/Time
EST
Temp
°C
App
Temp
°C
Dew
Point
°C
Rel
Hum
%
Delta-T
°C
Wind Press
QNH
hPa
Press
MSL
hPa
Rain since
9am
mm
Dir  Spd
km/h
Gust
km/h
Spd
kts
Gust
kts
20/11:30pm 21.8 20.9 18.2 80 2.3 NE 20 32 11 17 - - 0.0
20/11:00pm 21.6 22.1 18.4 82 2.0 ENE 13 22 7 12 - - 0.0
20/10:30pm 21.8 21.6 18.4 81 2.2 NE 17 26 9 14 - - 0.0
20/10:00pm 21.9 21.4 18.7 82 2.0 NE 19 28 10 15 - - 0.0
20/09:30pm 21.6 22.1 18.4 82 2.0 NE 13 17 7 9 - - 0.0
20/09:00pm 21.8 22.4 18.6 82 2.0 ENE 13 22 7 12 - - 0.0
20/08:30pm 22.0 21.3 18.6 81 2.2 ENE 20 30 11 16 - - 0.0

Other Formats:

Comma delimited format used in spreadsheet applications
http://www.bom.gov.au/fwo/IDQ60801/IDQ60801.94271.axf

JavaScript Object Notation format (JSON) in row-major order
http://www.bom.gov.au/fwo/IDQ60801/IDQ60801.94271.json